Time;durP1;ratioP1;P1;durP2;ratioP2;P2;SDS_P1;SDS_P2;PMS_P1;PMS_P2;Temp;Humidity;BMP_temperature;BMP_pressure;BME280_temperature;BME280_humidity;BME280_pressure;Samples;Min_cycle;Max_cycle;Signal;HPM_P1;HPM_P2
2022/10/28 00:01:31;;;;;;;4.70;3.93;;;;;;;;;;5082860;28;20579;-85
2022/10/28 00:04:01;;;;;;;5.20;4.70;;;;;;;;;;5085752;28;20568;-84
2022/10/28 00:06:29;;;;;;;4.90;3.77;;;;;;;;;;5094516;28;20267;-85
2022/10/28 00:08:59;;;;;;;6.97;3.80;;;;;;;;;;5098875;28;20205;-84
2022/10/28 00:11:27;;;;;;;6.37;3.73;;;;;;;;;;5088802;28;20197;-85
2022/10/28 00:13:56;;;;;;;5.00;3.70;;;;;;;;;;5098463;28;20221;-84
2022/10/28 00:16:25;;;;;;;4.47;3.80;;;;;;;;;;5097976;28;20223;-85
2022/10/28 00:18:53;;;;;;;6.10;4.43;;;;;;;;;;5082740;28;20229;-84
2022/10/28 00:21:22;;;;;;;6.53;4.63;;;;;;;;;;5099069;28;20174;-84
2022/10/28 00:23:49;;;;;;;5.00;4.50;;;;;;;;;;5098221;28;20228;-83
2022/10/28 00:26:20;;;;;;;7.33;4.87;;;;;;;;;;5098932;28;20220;-84
2022/10/28 00:28:49;;;;;;;6.33;5.27;;;;;;;;;;5098238;28;20237;-83
2022/10/28 00:31:17;;;;;;;6.20;5.00;;;;;;;;;;5094151;28;20215;-84
2022/10/28 00:33:45;;;;;;;5.33;4.60;;;;;;;;;;5097446;28;20217;-85
2022/10/28 00:36:14;;;;;;;5.53;5.00;;;;;;;;;;5099116;28;20235;-83
2022/10/28 00:38:42;;;;;;;6.10;4.73;;;;;;;;;;5098896;28;20233;-84
2022/10/28 00:41:10;;;;;;;7.20;4.93;;;;;;;;;;5099496;28;20182;-85
2022/10/28 00:43:41;;;;;;;8.87;6.20;;;;;;;;;;5098207;28;20244;-83
2022/10/28 00:46:14;;;;;;;5.67;4.47;;;;;;;;;;5098752;28;20232;-85
2022/10/28 00:48:44;;;;;;;8.07;5.00;;;;;;;;;;5098343;28;20234;-83
2022/10/28 00:51:12;;;;;;;6.37;4.97;;;;;;;;;;5099037;28;20197;-83
2022/10/28 00:53:41;;;;;;;6.77;4.80;;;;;;;;;;5097405;28;20229;-85
2022/10/28 00:56:09;;;;;;;5.27;4.70;;;;;;;;;;5073809;28;20237;-84
2022/10/28 00:58:36;;;;;;;5.33;4.53;;;;;;;;;;5070359;28;20222;-84
2022/10/28 01:01:05;;;;;;;5.50;4.57;;;;;;;;;;5072555;28;20213;-83
2022/10/28 01:03:32;;;;;;;5.83;4.20;;;;;;;;;;5067371;28;20233;-83
2022/10/28 01:05:59;;;;;;;4.90;3.73;;;;;;;;;;5072455;28;20228;-84
2022/10/28 01:08:27;;;;;;;4.37;3.90;;;;;;;;;;5089336;28;20255;-84
2022/10/28 01:11:08;;;;;;;5.10;3.97;;;;;;;;;;5093208;28;20208;-84
2022/10/28 01:13:40;;;;;;;5.33;4.17;;;;;;;;;;5065306;28;20232;-84
2022/10/28 01:16:15;;;;;;;7.13;3.80;;;;;;;;;;5071482;28;20233;-84
2022/10/28 01:18:46;;;;;;;5.27;3.70;;;;;;;;;;5071421;28;20247;-84
2022/10/28 01:21:34;;;;;;;8.40;3.90;;;;;;;;;;5061671;28;20599;-84
2022/10/28 01:24:11;;;;;;;6.60;4.40;;;;;;;;;;5056516;28;20308;-84
2022/10/28 01:26:57;;;;;;;5.03;4.50;;;;;;;;;;5061470;28;20228;-84
2022/10/28 01:29:37;;;;;;;4.20;3.73;;;;;;;;;;5072409;28;20193;-84
2022/10/28 01:32:11;;;;;;;8.17;4.90;;;;;;;;;;5071638;28;20221;-84
2022/10/28 01:34:43;;;;;;;4.63;3.93;;;;;;;;;;5071981;28;20666;-84
2022/10/28 01:37:14;;;;;;;7.23;4.60;;;;;;;;;;5071576;28;20612;-84
2022/10/28 01:39:44;;;;;;;6.07;4.30;;;;;;;;;;5071999;28;20214;-83
2022/10/28 01:42:14;;;;;;;11.07;4.57;;;;;;;;;;5071664;28;20240;-84
2022/10/28 01:44:46;;;;;;;10.90;6.40;;;;;;;;;;5072367;28;20209;-84
2022/10/28 01:47:16;;;;;;;8.73;6.33;;;;;;;;;;5071551;28;20238;-84
2022/10/28 01:49:48;;;;;;;8.67;5.73;;;;;;;;;;5071974;28;20197;-84
2022/10/28 01:52:17;;;;;;;8.97;5.87;;;;;;;;;;5071698;28;20232;-84
2022/10/28 01:54:47;;;;;;;8.73;6.00;;;;;;;;;;5067551;28;20203;-84
2022/10/28 01:57:15;;;;;;;11.30;6.17;;;;;;;;;;5071263;28;20233;-84
2022/10/28 01:59:43;;;;;;;8.47;6.90;;;;;;;;;;5071919;28;20226;-84
2022/10/28 02:02:10;;;;;;;11.17;5.63;;;;;;;;;;5064404;28;20228;-84
2022/10/28 02:04:39;;;;;;;12.47;6.40;;;;;;;;;;5071889;28;20202;-84
2022/10/28 02:07:06;;;;;;;10.53;6.20;;;;;;;;;;5071302;28;20242;-84
2022/10/28 02:09:37;;;;;;;12.17;6.80;;;;;;;;;;5071107;28;20196;-84
2022/10/28 02:12:13;;;;;;;11.17;7.00;;;;;;;;;;5070981;28;20235;-84
2022/10/28 02:14:46;;;;;;;10.73;6.87;;;;;;;;;;5071717;28;20201;-84
2022/10/28 02:17:20;;;;;;;8.83;6.40;;;;;;;;;;5070892;28;20597;-84
2022/10/28 02:19:52;;;;;;;9.43;6.30;;;;;;;;;;5071098;28;20236;-84
2022/10/28 02:22:21;;;;;;;9.23;5.97;;;;;;;;;;5071462;28;20578;-84
2022/10/28 02:24:51;;;;;;;10.70;6.47;;;;;;;;;;5071627;28;20209;-84
2022/10/28 02:27:21;;;;;;;7.40;5.97;;;;;;;;;;5070877;28;20603;-84
2022/10/28 02:29:51;;;;;;;10.07;6.13;;;;;;;;;;5071362;28;20665;-84
2022/10/28 02:32:20;;;;;;;11.77;6.10;;;;;;;;;;5070963;28;20232;-84
2022/10/28 02:34:48;;;;;;;14.67;7.10;;;;;;;;;;5070913;28;20215;-84
2022/10/28 02:37:21;;;;;;;13.07;7.10;;;;;;;;;;5070731;28;20740;-84
2022/10/28 02:39:51;;;;;;;10.10;6.90;;;;;;;;;;5071249;28;20296;-84
2022/10/28 02:42:20;;;;;;;13.63;7.23;;;;;;;;;;5071215;28;20229;-84
2022/10/28 02:44:49;;;;;;;9.20;7.23;;;;;;;;;;5074110;28;20209;-84
2022/10/28 02:47:20;;;;;;;13.47;6.90;;;;;;;;;;5074527;28;20700;-84
2022/10/28 02:49:50;;;;;;;11.27;6.93;;;;;;;;;;5075008;28;20189;-84
2022/10/28 02:52:20;;;;;;;10.87;6.67;;;;;;;;;;5074780;28;20229;-84
2022/10/28 02:54:51;;;;;;;15.07;6.27;;;;;;;;;;5075325;28;20197;-84
2022/10/28 02:57:37;;;;;;;10.13;7.27;;;;;;;;;;5074838;22;20230;-91
2022/10/28 03:00:07;;;;;;;14.97;7.20;;;;;;;;;;5057165;28;20202;-91
2022/10/28 03:02:35;;;;;;;10.50;7.37;;;;;;;;;;5057181;28;20238;-89
2022/10/28 03:05:02;;;;;;;10.10;7.07;;;;;;;;;;5057922;28;20550;-90
2022/10/28 03:07:30;;;;;;;12.00;7.67;;;;;;;;;;5081396;27;20232;-90
2022/10/28 03:09:57;;;;;;;9.07;6.53;;;;;;;;;;5096142;28;20209;-90
2022/10/28 03:12:24;;;;;;;8.97;6.50;;;;;;;;;;5085427;27;20228;-90
2022/10/28 03:14:52;;;;;;;12.90;6.63;;;;;;;;;;5080121;28;20204;-90
2022/10/28 03:17:19;;;;;;;11.17;6.67;;;;;;;;;;5091547;27;20611;-90
2022/10/28 03:19:46;;;;;;;10.67;6.97;;;;;;;;;;5096056;28;20225;-90
2022/10/28 03:22:13;;;;;;;11.93;6.80;;;;;;;;;;5096919;27;20232;-89
2022/10/28 03:24:41;;;;;;;12.93;7.07;;;;;;;;;;5097793;28;20205;-90
2022/10/28 03:27:09;;;;;;;9.47;6.37;;;;;;;;;;5074376;28;20233;-90
2022/10/28 03:29:36;;;;;;;15.33;6.60;;;;;;;;;;5096415;28;20608;-90
2022/10/28 03:32:03;;;;;;;10.60;6.70;;;;;;;;;;5096464;27;20228;-90
2022/10/28 03:34:30;;;;;;;15.13;7.03;;;;;;;;;;5096487;28;20204;-90
2022/10/28 03:36:57;;;;;;;10.63;7.00;;;;;;;;;;5096159;27;20239;-90
2022/10/28 03:39:24;;;;;;;8.67;6.53;;;;;;;;;;5077457;28;20218;-90
2022/10/28 03:41:53;;;;;;;11.00;7.47;;;;;;;;;;5075095;27;20233;-90
2022/10/28 03:44:20;;;;;;;14.87;7.50;;;;;;;;;;5076295;28;20217;-92
2022/10/28 03:46:47;;;;;;;13.10;7.27;;;;;;;;;;5089473;28;20240;-91
2022/10/28 03:49:14;;;;;;;11.37;7.30;;;;;;;;;;5078252;28;20204;-90
2022/10/28 03:51:41;;;;;;;10.47;6.80;;;;;;;;;;5075419;27;20233;-90
2022/10/28 03:54:08;;;;;;;9.97;6.97;;;;;;;;;;5083939;28;20645;-89
2022/10/28 03:56:35;;;;;;;11.00;7.20;;;;;;;;;;5074989;27;20603;-90
2022/10/28 03:59:03;;;;;;;12.07;8.17;;;;;;;;;;5075601;28;20229;-90
2022/10/28 04:01:30;;;;;;;11.57;7.40;;;;;;;;;;5088723;27;20213;-89
2022/10/28 04:03:57;;;;;;;10.60;7.67;;;;;;;;;;5095845;28;20209;-90
2022/10/28 04:06:24;;;;;;;11.63;7.57;;;;;;;;;;5095410;27;20217;-90
2022/10/28 04:08:51;;;;;;;11.90;7.23;;;;;;;;;;5091345;28;20207;-90
2022/10/28 04:11:19;;;;;;;14.90;7.77;;;;;;;;;;5078721;28;20204;-90
2022/10/28 04:13:46;;;;;;;11.37;8.00;;;;;;;;;;5076344;28;20205;-90
2022/10/28 04:16:14;;;;;;;15.67;9.53;;;;;;;;;;5081036;28;20592;-90
2022/10/28 04:18:41;;;;;;;11.77;8.30;;;;;;;;;;5058963;28;20599;-90
2022/10/28 04:21:08;;;;;;;11.40;8.47;;;;;;;;;;5078951;28;20546;-91
2022/10/28 04:23:35;;;;;;;13.63;9.10;;;;;;;;;;5078840;28;20308;-93
2022/10/28 04:26:02;;;;;;;14.20;8.10;;;;;;;;;;5072969;28;20224;-90
2022/10/28 04:28:30;;;;;;;14.87;8.20;;;;;;;;;;5073610;28;20240;-89
2022/10/28 04:30:57;;;;;;;13.27;8.73;;;;;;;;;;5075671;28;20697;-90
2022/10/28 04:33:33;;;;;;;17.20;8.90;;;;;;;;;;5074249;27;20236;-90
2022/10/28 04:36:00;;;;;;;22.33;9.63;;;;;;;;;;5077070;28;20704;-90
2022/10/28 04:38:27;;;;;;;11.60;8.10;;;;;;;;;;5073940;27;20232;-90
2022/10/28 04:41:01;;;;;;;12.87;8.90;;;;;;;;;;5086522;28;20221;-89
2022/10/28 04:43:28;;;;;;;16.53;8.60;;;;;;;;;;5086590;27;20735;-89
2022/10/28 04:45:55;;;;;;;15.33;8.97;;;;;;;;;;5076347;28;20237;-87
2022/10/28 04:48:23;;;;;;;14.80;8.83;;;;;;;;;;5090918;27;20734;-87
2022/10/28 04:50:53;;;;;;;17.77;8.97;;;;;;;;;;5074066;28;20200;-88
2022/10/28 04:53:20;;;;;;;15.17;8.70;;;;;;;;;;5075288;27;20715;-88
2022/10/28 04:55:47;;;;;;;13.73;8.50;;;;;;;;;;5073870;28;20563;-88
2022/10/28 04:58:14;;;;;;;16.17;8.47;;;;;;;;;;5069004;27;20737;-87
2022/10/28 05:00:42;;;;;;;15.13;7.90;;;;;;;;;;5069174;28;20225;-87
2022/10/28 05:03:09;;;;;;;13.93;8.60;;;;;;;;;;5073528;28;20575;-87
2022/10/28 05:05:36;;;;;;;13.07;8.57;;;;;;;;;;5077593;28;20207;-87
2022/10/28 05:08:05;;;;;;;11.83;8.67;;;;;;;;;;5070520;27;20233;-86
2022/10/28 05:10:32;;;;;;;11.90;8.23;;;;;;;;;;5074012;28;20227;-86
2022/10/28 05:12:59;;;;;;;16.23;9.80;;;;;;;;;;5080251;28;20228;-90
2022/10/28 05:15:31;;;;;;;12.03;8.43;;;;;;;;;;5073406;28;20214;-88
2022/10/28 05:17:58;;;;;;;11.10;8.63;;;;;;;;;;5074036;27;20286;-91
2022/10/28 05:20:28;;;;;;;17.97;8.90;;;;;;;;;;5078143;28;20226;-91
2022/10/28 05:22:55;;;;;;;16.17;8.43;;;;;;;;;;5075182;27;20588;-89
2022/10/28 05:25:28;;;;;;;11.80;8.20;;;;;;;;;;5076373;28;20281;-89
2022/10/28 05:27:58;;;;;;;9.23;7.33;;;;;;;;;;5076788;28;20247;-89
2022/10/28 05:30:30;;;;;;;12.77;7.63;;;;;;;;;;5075578;28;20551;-88
2022/10/28 05:33:01;;;;;;;23.27;8.03;;;;;;;;;;5073968;28;20241;-89
2022/10/28 05:35:28;;;;;;;10.30;7.83;;;;;;;;;;5074951;28;20209;-89
2022/10/28 05:37:55;;;;;;;12.83;8.53;;;;;;;;;;5074709;28;20239;-89
2022/10/28 05:40:23;;;;;;;10.27;8.57;;;;;;;;;;5074466;28;20247;-88
2022/10/28 05:42:51;;;;;;;16.83;9.23;;;;;;;;;;5073311;28;20229;-88
2022/10/28 05:45:18;;;;;;;13.23;8.60;;;;;;;;;;5074122;28;20205;-88
2022/10/28 05:47:46;;;;;;;13.27;8.60;;;;;;;;;;5073142;28;20237;-88
2022/10/28 05:50:14;;;;;;;12.97;8.30;;;;;;;;;;5074142;28;20201;-88
2022/10/28 05:52:45;;;;;;;23.67;12.03;;;;;;;;;;5074574;28;20693;-88
2022/10/28 05:55:12;;;;;;;20.20;12.23;;;;;;;;;;5075100;28;20193;-89
2022/10/28 05:57:47;;;;;;;19.53;12.70;;;;;;;;;;5074999;28;20244;-89
2022/10/28 06:00:17;;;;;;;20.20;11.93;;;;;;;;;;5075143;28;20232;-89
2022/10/28 06:02:45;;;;;;;19.77;11.33;;;;;;;;;;5074500;28;20229;-89
2022/10/28 06:05:12;;;;;;;12.43;8.43;;;;;;;;;;5074637;28;20202;-89
2022/10/28 06:07:53;;;;;;;9.60;7.43;;;;;;;;;;5076860;27;20233;-89
2022/10/28 06:10:20;;;;;;;12.57;7.97;;;;;;;;;;5073345;28;20186;-89
2022/10/28 06:12:47;;;;;;;10.73;7.40;;;;;;;;;;5075206;28;20232;-90
2022/10/28 06:15:14;;;;;;;11.97;7.37;;;;;;;;;;5079577;28;20207;-90
2022/10/28 06:17:43;;;;;;;18.00;8.20;;;;;;;;;;5077257;28;20235;-90
2022/10/28 06:20:11;;;;;;;10.17;7.10;;;;;;;;;;5098325;28;20235;-90
2022/10/28 06:22:38;;;;;;;9.83;6.80;;;;;;;;;;5082407;28;20244;-90
2022/10/28 06:25:06;;;;;;;14.20;8.23;;;;;;;;;;5079562;28;20688;-90
2022/10/28 06:27:33;;;;;;;13.37;8.40;;;;;;;;;;5092651;27;20228;-91
2022/10/28 06:30:00;;;;;;;12.13;9.10;;;;;;;;;;5080698;28;20192;-90
2022/10/28 06:32:30;;;;;;;12.43;8.87;;;;;;;;;;5079559;28;20229;-90
2022/10/28 06:34:59;;;;;;;14.97;8.77;;;;;;;;;;5072832;28;20201;-90
2022/10/28 06:37:26;;;;;;;11.77;8.20;;;;;;;;;;5083233;28;20236;-90
2022/10/28 06:39:54;;;;;;;13.00;8.67;;;;;;;;;;5077622;28;20232;-91
2022/10/28 06:42:21;;;;;;;12.30;8.33;;;;;;;;;;5073901;28;20721;-90
2022/10/28 06:45:00;;;;;;;12.83;9.37;;;;;;;;;;5085038;28;20213;-90
2022/10/28 06:47:27;;;;;;;14.03;9.93;;;;;;;;;;5097792;28;20228;-90
2022/10/28 06:49:54;;;;;;;16.70;10.03;;;;;;;;;;5097574;28;20208;-90
2022/10/28 06:52:23;;;;;;;15.23;11.10;;;;;;;;;;5078076;28;20228;-91
2022/10/28 06:54:50;;;;;;;15.43;10.60;;;;;;;;;;5087838;28;20205;-91
2022/10/28 06:57:17;;;;;;;15.17;10.40;;;;;;;;;;5079215;28;20244;-91
2022/10/28 06:59:44;;;;;;;17.60;9.83;;;;;;;;;;5070550;28;20289;-91
2022/10/28 07:02:12;;;;;;;13.47;9.67;;;;;;;;;;5057211;28;20230;-91
2022/10/28 07:04:39;;;;;;;16.47;10.20;;;;;;;;;;5081877;28;20209;-89
2022/10/28 07:07:07;;;;;;;18.43;10.77;;;;;;;;;;5081083;28;20240;-89
2022/10/28 07:09:38;;;;;;;13.47;9.77;;;;;;;;;;5077243;28;20196;-90
2022/10/28 07:12:10;;;;;;;15.50;9.70;;;;;;;;;;5076601;27;20229;-90
2022/10/28 07:14:43;;;;;;;16.20;10.23;;;;;;;;;;5078013;28;20201;-89
2022/10/28 07:17:11;;;;;;;16.57;9.53;;;;;;;;;;5076377;27;20229;-90
2022/10/28 07:19:49;;;;;;;21.50;11.20;;;;;;;;;;5078509;28;20181;-90
2022/10/28 07:22:27;;;;;;;18.10;10.17;;;;;;;;;;5077823;27;20714;-91
2022/10/28 07:25:01;;;;;;;15.07;10.80;;;;;;;;;;5077686;28;20629;-91
2022/10/28 07:27:28;;;;;;;24.17;11.40;;;;;;;;;;5077782;27;20232;-91
2022/10/28 07:30:05;;;;;;;17.70;11.20;;;;;;;;;;5072873;28;20209;-91
2022/10/28 07:32:32;;;;;;;17.07;10.70;;;;;;;;;;5058392;28;20226;-91
2022/10/28 07:34:59;;;;;;;14.13;11.03;;;;;;;;;;5057311;28;20210;-91
2022/10/28 07:37:27;;;;;;;19.73;11.27;;;;;;;;;;5073090;28;20244;-91
2022/10/28 07:39:54;;;;;;;19.43;11.90;;;;;;;;;;5067129;28;20209;-91
2022/10/28 07:42:28;;;;;;;15.90;11.20;;;;;;;;;;5056482;28;20229;-91
2022/10/28 07:44:56;;;;;;;13.10;10.73;;;;;;;;;;5056657;28;20221;-91
2022/10/28 07:47:27;;;;;;;16.53;11.30;;;;;;;;;;5062931;28;20225;-91
2022/10/28 07:49:54;;;;;;;19.07;11.77;;;;;;;;;;5065372;28;20210;-90
2022/10/28 07:52:21;;;;;;;16.93;11.70;;;;;;;;;;5055822;28;20229;-91
2022/10/28 07:54:49;;;;;;;17.13;11.60;;;;;;;;;;5055673;28;20217;-90
2022/10/28 07:57:16;;;;;;;17.87;11.87;;;;;;;;;;5055448;28;20934;-90
2022/10/28 08:00:00;;;;;;;18.43;11.77;;;;;;;;;;5055791;28;20288;-89
2022/10/28 08:02:27;;;;;;;22.27;11.97;;;;;;;;;;5056046;28;20226;-90
2022/10/28 08:04:55;;;;;;;19.20;11.73;;;;;;;;;;5055966;28;20199;-90
2022/10/28 08:07:23;;;;;;;19.93;11.50;;;;;;;;;;5056749;28;20253;-90
2022/10/28 08:09:52;;;;;;;16.57;11.37;;;;;;;;;;5060529;28;20207;-88
2022/10/28 08:12:20;;;;;;;18.47;11.47;;;;;;;;;;5060517;28;20237;-87
2022/10/28 08:14:56;;;;;;;16.33;11.37;;;;;;;;;;5066706;28;20202;-89
2022/10/28 08:17:25;;;;;;;16.70;12.13;;;;;;;;;;5100026;27;20212;-90
2022/10/28 08:19:52;;;;;;;17.50;12.10;;;;;;;;;;5118891;28;20248;-87
2022/10/28 08:22:19;;;;;;;16.97;12.37;;;;;;;;;;5094406;27;20237;-87
2022/10/28 08:24:47;;;;;;;26.13;13.30;;;;;;;;;;5104103;28;20261;-87
2022/10/28 08:27:14;;;;;;;19.90;12.50;;;;;;;;;;5095902;28;20277;-88
2022/10/28 08:29:41;;;;;;;25.07;13.30;;;;;;;;;;5087698;28;20205;-88
2022/10/28 08:35:13;;;;;;;21.37;13.77;;;;;;;;;;5075320;28;20192;-88
2022/10/28 08:37:42;;;;;;;21.33;13.77;;;;;;;;;;5074488;28;20245;-89
2022/10/28 08:40:10;;;;;;;23.10;13.80;;;;;;;;;;5075352;28;20209;-88
2022/10/28 08:42:41;;;;;;;23.03;12.77;;;;;;;;;;5073790;27;20322;-89
2022/10/28 08:45:24;;;;;;;21.90;13.30;;;;;;;;;;5075053;28;20190;-89
2022/10/28 08:47:55;;;;;;;23.27;12.43;;;;;;;;;;5074239;27;20597;-89
2022/10/28 08:50:26;;;;;;;21.63;12.80;;;;;;;;;;5074877;28;20201;-88
2022/10/28 08:53:04;;;;;;;19.03;12.40;;;;;;;;;;5074633;28;20311;-88
2022/10/28 08:55:32;;;;;;;20.00;13.17;;;;;;;;;;5074535;28;20672;-88
2022/10/28 08:58:01;;;;;;;21.30;13.40;;;;;;;;;;5074181;27;20233;-89
2022/10/28 09:00:29;;;;;;;21.70;12.40;;;;;;;;;;5089517;22;20229;-92
2022/10/28 09:03:01;;;;;;;16.57;12.00;;;;;;;;;;5055197;28;20242;-91
2022/10/28 09:05:30;;;;;;;20.37;12.40;;;;;;;;;;5053273;28;20212;-90
2022/10/28 09:07:58;;;;;;;21.10;12.73;;;;;;;;;;5032820;28;20245;-91
2022/10/28 09:13:38;;;;;;;18.03;10.50;;;;;;;;;;5058098;28;20720;-93
2022/10/28 09:16:10;;;;;;;14.30;10.13;;;;;;;;;;5073638;28;20205;-91
2022/10/28 09:30:37;;;;;;;10.77;8.27;;;;;;;;;;5071908;28;20610;-92
2022/10/28 09:33:25;;;;;;;14.37;7.73;;;;;;;;;;5059984;28;20233;-91
2022/10/28 09:35:52;;;;;;;12.00;6.30;;;;;;;;;;5058643;28;20255;-90
2022/10/28 09:38:26;;;;;;;8.87;6.60;;;;;;;;;;5071913;28;20229;-91
2022/10/28 09:40:56;;;;;;;8.67;5.77;;;;;;;;;;5062338;28;20240;-90
2022/10/28 09:43:26;;;;;;;11.83;5.73;;;;;;;;;;5051784;28;20234;-90
2022/10/28 09:45:54;;;;;;;7.07;5.50;;;;;;;;;;5052198;28;20210;-90
2022/10/28 09:48:24;;;;;;;11.63;6.40;;;;;;;;;;5051998;28;20230;-90
2022/10/28 09:50:52;;;;;;;11.97;5.93;;;;;;;;;;5066297;28;20244;-90
2022/10/28 09:53:25;;;;;;;11.90;6.10;;;;;;;;;;5072105;28;20233;-91
2022/10/28 09:55:54;;;;;;;11.13;5.53;;;;;;;;;;5088769;28;20200;-90
2022/10/28 09:58:21;;;;;;;9.10;4.63;;;;;;;;;;5071662;28;20233;-91
2022/10/28 10:00:48;;;;;;;9.63;4.63;;;;;;;;;;5072168;28;20230;-91
2022/10/28 10:03:16;;;;;;;7.50;4.53;;;;;;;;;;5072137;28;20229;-91
2022/10/28 10:05:45;;;;;;;8.33;4.27;;;;;;;;;;5072416;28;20653;-91
2022/10/28 10:08:14;;;;;;;12.40;5.53;;;;;;;;;;5071630;28;20237;-91
2022/10/28 10:10:49;;;;;;;11.33;4.67;;;;;;;;;;5072834;28;20233;-90
2022/10/28 10:13:18;;;;;;;9.10;4.47;;;;;;;;;;5071872;28;20243;-91
2022/10/28 10:15:47;;;;;;;7.10;4.17;;;;;;;;;;5072731;28;20205;-90
2022/10/28 10:18:16;;;;;;;8.77;3.97;;;;;;;;;;5071942;28;20237;-91
2022/10/28 10:20:47;;;;;;;5.97;3.53;;;;;;;;;;5072207;28;20697;-90
2022/10/28 10:23:22;;;;;;;6.15;3.40;;;;;;;;;;5070410;28;20720;-90
2022/10/28 10:25:54;;;;;;;8.23;4.37;;;;;;;;;;5072164;28;20201;-91
2022/10/28 10:28:24;;;;;;;4.33;3.30;;;;;;;;;;5071190;28;20237;-89
2022/10/28 10:30:52;;;;;;;7.97;3.38;;;;;;;;;;5072013;28;20221;-91
2022/10/28 10:33:22;;;;;;;11.45;3.50;;;;;;;;;;5072305;28;20260;-92
2022/10/28 10:35:54;;;;;;;6.50;3.10;;;;;;;;;;5072236;28;20186;-91
2022/10/28 10:38:22;;;;;;;8.20;3.08;;;;;;;;;;5071925;28;20233;-91
2022/10/28 10:40:49;;;;;;;8.05;3.45;;;;;;;;;;5072435;28;20239;-91
2022/10/28 10:43:21;;;;;;;4.53;2.97;;;;;;;;;;5059044;28;20233;-89
2022/10/28 10:45:52;;;;;;;4.30;2.40;;;;;;;;;;5051572;28;20206;-89
2022/10/28 10:48:19;;;;;;;6.30;2.95;;;;;;;;;;5058573;28;20238;-90
2022/10/28 10:50:47;;;;;;;6.38;2.90;;;;;;;;;;5051495;28;20226;-90
2022/10/28 10:53:20;;;;;;;5.28;2.80;;;;;;;;;;5051027;28;20234;-89
2022/10/28 10:55:50;;;;;;;7.47;3.28;;;;;;;;;;5051465;28;20190;-89
2022/10/28 10:58:18;;;;;;;9.18;3.03;;;;;;;;;;5051272;28;20240;-90
2022/10/28 11:00:47;;;;;;;7.03;2.60;;;;;;;;;;5051185;28;20237;-89
2022/10/28 11:03:18;;;;;;;5.20;2.78;;;;;;;;;;5050931;28;20238;-89
2022/10/28 11:05:49;;;;;;;5.50;3.08;;;;;;;;;;5053686;28;20189;-89
2022/10/28 11:08:22;;;;;;;5.40;2.47;;;;;;;;;;5055750;28;20845;-89
2022/10/28 11:11:03;;;;;;;3.55;2.30;;;;;;;;;;5055956;28;20234;-89
2022/10/28 11:13:31;;;;;;;11.38;2.60;;;;;;;;;;5055537;28;20233;-90
2022/10/28 11:16:01;;;;;;;5.60;2.70;;;;;;;;;;5056713;28;20205;-90
2022/10/28 11:18:39;;;;;;;4.95;2.15;;;;;;;;;;5054997;28;20609;-90
2022/10/28 11:21:09;;;;;;;5.20;2.60;;;;;;;;;;5063532;28;20304;-90
2022/10/28 11:23:41;;;;;;;3.08;2.22;;;;;;;;;;5075871;28;20233;-91
2022/10/28 11:26:11;;;;;;;5.18;2.35;;;;;;;;;;5062518;28;20605;-90
2022/10/28 11:28:52;;;;;;;6.15;2.30;;;;;;;;;;5055563;28;20284;-90
2022/10/28 11:31:32;;;;;;;6.88;2.83;;;;;;;;;;5054788;28;20206;-90
2022/10/28 11:34:07;;;;;;;7.55;2.35;;;;;;;;;;5055580;28;20190;-90
2022/10/28 11:36:37;;;;;;;6.63;2.75;;;;;;;;;;5054784;28;20205;-90
2022/10/28 11:39:20;;;;;;;4.38;2.30;;;;;;;;;;5055252;28;20226;-89
2022/10/28 11:41:56;;;;;;;10.02;2.72;;;;;;;;;;5068462;28;20275;-89
2022/10/28 11:44:28;;;;;;;3.75;2.13;;;;;;;;;;5067665;28;20212;-89
2022/10/28 11:47:02;;;;;;;9.68;2.17;;;;;;;;;;5054731;28;20230;-89
2022/10/28 11:49:50;;;;;;;5.75;2.28;;;;;;;;;;5055205;28;20230;-90
2022/10/28 11:52:24;;;;;;;4.28;2.45;;;;;;;;;;5054892;28;20230;-89
2022/10/28 11:54:56;;;;;;;4.10;2.15;;;;;;;;;;5054682;28;20191;-88
2022/10/28 11:57:28;;;;;;;3.60;2.20;;;;;;;;;;5053717;28;20230;-90
2022/10/28 12:00:02;;;;;;;4.13;2.40;;;;;;;;;;5058318;28;20237;-88
2022/10/28 12:02:39;;;;;;;6.03;2.63;;;;;;;;;;5055774;28;20586;-89
2022/10/28 12:05:11;;;;;;;4.85;2.35;;;;;;;;;;5054612;28;20701;-89
2022/10/28 12:07:53;;;;;;;6.82;2.40;;;;;;;;;;5054058;28;20253;-89
2022/10/28 12:10:25;;;;;;;5.70;2.40;;;;;;;;;;5050662;28;20233;-88
2022/10/28 12:12:55;;;;;;;9.80;2.38;;;;;;;;;;5053554;28;20655;-89
2022/10/28 12:15:27;;;;;;;6.90;2.20;;;;;;;;;;5053144;28;20670;-89
2022/10/28 12:17:55;;;;;;;4.65;2.75;;;;;;;;;;5065344;28;20283;-89
2022/10/28 12:20:26;;;;;;;2.53;1.83;;;;;;;;;;5073296;28;20221;-90
2022/10/28 12:22:55;;;;;;;7.78;2.42;;;;;;;;;;5072689;28;20244;-90
2022/10/28 12:25:25;;;;;;;3.75;2.00;;;;;;;;;;5073490;28;20210;-91
2022/10/28 12:27:54;;;;;;;3.75;1.92;;;;;;;;;;5072749;28;20225;-90
2022/10/28 12:30:22;;;;;;;9.57;2.55;;;;;;;;;;5073229;28;20229;-90
2022/10/28 12:32:50;;;;;;;3.83;2.40;;;;;;;;;;5072446;28;20615;-90
2022/10/28 12:35:19;;;;;;;6.30;2.13;;;;;;;;;;5073039;28;20201;-88
2022/10/28 12:37:50;;;;;;;8.05;2.85;;;;;;;;;;5072743;28;20233;-90
2022/10/28 12:40:20;;;;;;;6.72;2.30;;;;;;;;;;5072763;28;20747;-90
2022/10/28 12:42:51;;;;;;;6.47;2.30;;;;;;;;;;5072466;28;20237;-89
2022/10/28 12:45:19;;;;;;;8.25;1.90;;;;;;;;;;5072739;28;20190;-90
2022/10/28 12:47:49;;;;;;;4.82;1.67;;;;;;;;;;5062975;28;20241;-89
2022/10/28 12:50:20;;;;;;;4.95;2.75;;;;;;;;;;5073047;28;20221;-89
2022/10/28 12:52:51;;;;;;;4.75;2.47;;;;;;;;;;5072260;28;20233;-89
2022/10/28 12:55:21;;;;;;;6.28;2.00;;;;;;;;;;5072504;28;20217;-88
2022/10/28 12:57:50;;;;;;;10.98;2.42;;;;;;;;;;5053384;28;20237;-88
2022/10/28 13:00:20;;;;;;;6.78;2.13;;;;;;;;;;5054338;28;20233;-87
2022/10/28 13:02:49;;;;;;;7.00;2.42;;;;;;;;;;5053482;28;20233;-88
2022/10/28 13:05:19;;;;;;;7.72;2.40;;;;;;;;;;5073605;28;20211;-88
2022/10/28 13:07:58;;;;;;;5.70;2.20;;;;;;;;;;5072815;28;20239;-89
2022/10/28 13:10:27;;;;;;;5.43;2.42;;;;;;;;;;5072987;28;20217;-88
2022/10/28 13:13:05;;;;;;;3.53;2.00;;;;;;;;;;5073687;28;20272;-88
2022/10/28 13:15:41;;;;;;;6.30;2.28;;;;;;;;;;5053637;28;20213;-89
2022/10/28 13:18:18;;;;;;;6.03;2.13;;;;;;;;;;5051856;28;20653;-89
2022/10/28 13:20:48;;;;;;;13.23;2.67;;;;;;;;;;5064648;28;20332;-91
2022/10/28 13:23:26;;;;;;;3.47;1.75;;;;;;;;;;5081206;28;20255;-87
2022/10/28 13:25:58;;;;;;;3.10;2.17;;;;;;;;;;5086479;28;20227;-91
2022/10/28 13:28:29;;;;;;;4.53;2.00;;;;;;;;;;5081438;28;20305;-91
2022/10/28 13:30:57;;;;;;;5.10;2.08;;;;;;;;;;5078623;28;20225;-92
2022/10/28 13:33:25;;;;;;;8.32;3.78;;;;;;;;;;5056580;28;20230;-92
2022/10/28 13:35:53;;;;;;;7.43;2.58;;;;;;;;;;5056099;28;20202;-92
2022/10/28 13:38:22;;;;;;;9.80;2.15;;;;;;;;;;5067280;28;20240;-91
2022/10/28 13:41:04;;;;;;;6.40;2.90;;;;;;;;;;5054593;28;20222;-90
2022/10/28 13:43:50;;;;;;;4.80;2.47;;;;;;;;;;5052901;28;20324;-89
2022/10/28 13:46:32;;;;;;;8.95;2.72;;;;;;;;;;5052512;28;20213;-89
2022/10/28 13:49:15;;;;;;;5.25;2.05;;;;;;;;;;5051964;28;20305;-88
2022/10/28 13:51:46;;;;;;;7.15;2.55;;;;;;;;;;5051666;28;20237;-92
2022/10/28 13:54:26;;;;;;;6.75;2.40;;;;;;;;;;5052520;28;20212;-88
2022/10/28 13:56:54;;;;;;;6.20;2.05;;;;;;;;;;5051213;28;20229;-90
2022/10/28 13:59:28;;;;;;;5.30;1.85;;;;;;;;;;5069840;28;20237;-92
2022/10/28 14:01:55;;;;;;;7.78;2.63;;;;;;;;;;5073683;28;20290;-93
2022/10/28 14:04:27;;;;;;;6.57;2.60;;;;;;;;;;5077135;28;20221;-93
2022/10/28 14:07:01;;;;;;;8.77;3.22;;;;;;;;;;5072662;28;20229;-91
2022/10/28 14:09:30;;;;;;;7.45;2.80;;;;;;;;;;5066000;28;20232;-88
2022/10/28 14:12:15;;;;;;;7.90;2.63;;;;;;;;;;5052044;28;20221;-93
2022/10/28 14:14:50;;;;;;;5.47;2.58;;;;;;;;;;5054606;28;20642;-91
2022/10/28 14:17:20;;;;;;;5.80;2.30;;;;;;;;;;5052944;28;20232;-94
2022/10/28 14:19:49;;;;;;;4.97;2.00;;;;;;;;;;5058606;28;20221;-95
2022/10/28 14:22:26;;;;;;;6.53;2.60;;;;;;;;;;5055605;28;20233;-93
2022/10/28 14:24:59;;;;;;;7.10;2.70;;;;;;;;;;5054250;28;20194;-94
2022/10/28 14:27:30;;;;;;;4.75;2.50;;;;;;;;;;5065043;28;20740;-92
2022/10/28 14:30:16;;;;;;;5.82;2.10;;;;;;;;;;5071794;28;20232;-91
2022/10/28 14:32:45;;;;;;;7.95;2.55;;;;;;;;;;5071925;28;20237;-91
2022/10/28 14:35:24;;;;;;;6.05;2.63;;;;;;;;;;5072581;28;20852;-89
2022/10/28 14:38:18;;;;;;;4.30;1.98;;;;;;;;;;5071474;28;20264;-90
2022/10/28 14:40:50;;;;;;;5.97;2.13;;;;;;;;;;5074500;28;20228;-90
2022/10/28 14:43:24;;;;;;;6.95;2.40;;;;;;;;;;5055491;28;20264;-89
2022/10/28 14:45:58;;;;;;;7.43;2.50;;;;;;;;;;5055435;28;20190;-90
2022/10/28 14:48:34;;;;;;;4.97;2.55;;;;;;;;;;5054583;28;20238;-90
2022/10/28 14:51:02;;;;;;;3.28;2.15;;;;;;;;;;5055580;28;20194;-91
2022/10/28 14:53:30;;;;;;;6.88;2.50;;;;;;;;;;5067123;28;20232;-88
2022/10/28 14:56:01;;;;;;;7.15;2.70;;;;;;;;;;5075815;28;20205;-90
2022/10/28 14:58:32;;;;;;;6.68;2.60;;;;;;;;;;5072756;28;20261;-91
2022/10/28 15:01:05;;;;;;;5.18;2.33;;;;;;;;;;5099573;22;20229;-91
2022/10/28 15:03:33;;;;;;;6.75;2.10;;;;;;;;;;5076089;28;20240;-91
2022/10/28 15:06:02;;;;;;;3.30;2.47;;;;;;;;;;5076557;28;20209;-91
2022/10/28 15:08:29;;;;;;;5.40;2.58;;;;;;;;;;5055772;28;20241;-93
2022/10/28 15:10:56;;;;;;;7.05;2.58;;;;;;;;;;5073736;28;20238;-94